Astor, FL (32102)

4:13 AM EDT on August 31, 2015 (GMT -0400)
Shockley Heights | | Change Station
CLOSE
Current Station
Personal Weather Station
Location: Altoona, FL
Elevation: 141 ft
Nearby Weather Stations
Active Advisory: Areal Flood Watch

Elev 141 ft 29.04 °N, 81.62 °W | Updated 1 second ago

Partly Cloudy
Partly Cloudy
75.7 °F
Feels Like 74 °F
N
0.0
Wind Variable Wind from North
Gusts 0.0 mph

Today
High -- | Low -- °F
--% Chance of Precip.
Yesterday
High -- | Low -- °F
Precip. -- in
7:03 AM 7:49 PM
Waning Gibbous, 96% visible
Pressure 30.00 in
Visibility 10.0 miles
Clouds Clear
Heat Index 74 °F
Dew Point 76 °F
Humidity 99%
Rainfall 0.00 in
Snow Depth Not available.
UV 0.0 out of 12
Pollen 1.40 out of 12
Air Quality Not available.
Flu Activity Not available.
METAR KLEE 310753Z AUTO 17010KT 10SM CLR 26/23 A3000 RMK AO2 SLP158 T02560233
Pressure 30.00 in
Visibility 10.0 miles
Clouds Clear
Heat Index 74 °F
Dew Point 76 °F
Humidity 99%
Rainfall 0.00 in
Snow Depth Not available.
UV 0.0 out of 12
Pollen 1.40 out of 12
Air Quality Not available.
Flu Activity Not available.
METAR KLEE 310753Z AUTO 17010KT 10SM CLR 26/23 A3000 RMK AO2 SLP158 T02560233

10-Day Weather Forecast

×

Almanac

Astronomy

Aug. 31, 2015 Rise Set
Actual Time
Civil Twilight
Nautical Twilight
Astronomical Twilight
Moon
Length of Visible Light
Length of Day
Tomorrow will be .
, % of the Moon is Illuminated

Today's Extremes

State Highs State Lows

Community

WunderPhotos

Upload Photos

1,851,220 photos uploaded!

WunderBlogs® & News

Nearby

Air Quality

  Air Quality AQ Index Pollutant
Not available.

Snow Depth

Station Depth Elevation

Earthquake Activity

City Distance Mag. Time & Date
Minimum magnitude displayed is 2.5.

Coastal Water Temperatures

Place Temperature

Stations

Nearby Weather Stations

Station Location Temp. Windchill Dew Point Humidity Wind Precip. Elev Updated Type
                   
Areal Flood Watch
Statement as of 4:04 AM EDT on August 31, 2015

... Flood Watch remains in effect through this evening...

The Flood Watch continues for

* east central Florida... including
Brevard... Indian River... Lake... Martin... Okeechobee...
Orange... Osceola... Seminole... Saint Lucie and Volusia counties.

* Through this evening.

* Deep tropical moisture over the region will continue to create a
threat for heavy rainfall across east central Florida today.
Additional rainfall up to 3 inches will be possible.

* Heavy rain may create significant flooding of streets... urban
areas... and low lying flood prone areas especially where showers
and storms move repeatedly over the same areas.

Precautionary/preparedness actions...

A Flood Watch means there is a potential for flooding based on
current forecasts.

You should monitor later forecasts and be alert for possible
flood warnings. Those living in areas prone to flooding should be
prepared to take action should flooding develop.



Kelly